createdAt,value
2023-05-23T00:02:16.734Z,5.20
2023-05-23T00:04:44.385Z,5.57
2023-05-23T00:07:11.620Z,5.67
2023-05-23T00:09:38.851Z,6.10
2023-05-23T00:12:07.074Z,5.43
2023-05-23T00:14:35.546Z,5.73
2023-05-23T00:17:02.931Z,5.70
2023-05-23T00:19:30.270Z,6.20
2023-05-23T00:21:58.590Z,5.63
2023-05-23T00:24:26.023Z,5.70
2023-05-23T00:26:53.270Z,6.37
2023-05-23T00:29:20.901Z,5.60
2023-05-23T00:31:48.075Z,5.53
2023-05-23T00:34:17.804Z,5.90
2023-05-23T00:36:47.899Z,6.47
2023-05-23T00:39:20.961Z,7.37
2023-05-23T00:41:53.155Z,6.87
2023-05-23T00:44:22.051Z,7.67
2023-05-23T00:46:56.724Z,9.80
2023-05-23T00:49:24.666Z,8.90
2023-05-23T00:51:52.661Z,7.60
2023-05-23T00:54:25.639Z,8.67
2023-05-23T00:56:53.512Z,9.03
2023-05-23T00:59:22.880Z,8.33
2023-05-23T01:01:52.985Z,7.13
2023-05-23T01:04:20.670Z,8.93
2023-05-23T01:06:49.104Z,9.20
2023-05-23T01:09:18.081Z,7.80
2023-05-23T01:12:25.427Z,10.60
2023-05-23T01:15:11.367Z,9.00
2023-05-23T01:18:10.855Z,9.67
2023-05-23T01:20:54.201Z,9.10
2023-05-23T01:23:36.436Z,9.07
2023-05-23T01:26:26.316Z,8.70
2023-05-23T01:29:10.204Z,9.10
2023-05-23T01:31:43.597Z,9.53
2023-05-23T01:34:15.106Z,8.40
2023-05-23T01:36:43.810Z,8.57
2023-05-23T01:39:12.055Z,7.37
2023-05-23T01:41:39.190Z,7.47
2023-05-23T01:44:06.354Z,6.50
2023-05-23T01:46:34.715Z,7.20
2023-05-23T01:49:04.452Z,8.47
2023-05-23T01:51:34.272Z,8.93
2023-05-23T01:54:02.369Z,8.60
2023-05-23T01:56:30.736Z,10.40
2023-05-23T01:58:58.720Z,9.40
2023-05-23T02:01:26.076Z,8.60
2023-05-23T02:03:53.694Z,9.90
2023-05-23T02:06:21.325Z,9.53
2023-05-23T02:08:48.388Z,8.17
2023-05-23T02:11:16.090Z,8.90
2023-05-23T02:13:43.207Z,9.67
2023-05-23T02:16:10.638Z,8.97
2023-05-23T02:18:38.391Z,9.30
2023-05-23T02:21:06.654Z,7.80
2023-05-23T02:23:33.915Z,7.90
2023-05-23T02:26:01.033Z,7.30
2023-05-23T02:28:28.220Z,7.60
2023-05-23T02:30:55.451Z,6.50
2023-05-23T02:33:22.837Z,6.07
2023-05-23T02:35:51.799Z,6.57
2023-05-23T02:38:20.769Z,7.07
2023-05-23T02:40:50.435Z,8.77
2023-05-23T02:43:17.992Z,6.50
2023-05-23T02:45:45.284Z,6.83
2023-05-23T02:48:12.500Z,7.00
2023-05-23T02:50:39.848Z,7.33
2023-05-23T02:53:07.216Z,9.47
2023-05-23T02:55:34.432Z,7.33
2023-05-23T02:58:01.585Z,7.77
2023-05-23T03:00:28.709Z,8.50
2023-05-23T03:02:58.222Z,7.90
2023-05-23T03:05:25.389Z,8.20
2023-05-23T03:07:52.512Z,7.17
2023-05-23T03:10:19.623Z,7.53
2023-05-23T03:12:47.415Z,7.20
2023-05-23T03:15:16.657Z,6.20
2023-05-23T03:17:44.978Z,6.00
2023-05-23T03:20:12.154Z,5.80
2023-05-23T03:22:39.439Z,5.47
2023-05-23T03:25:07.276Z,6.20
2023-05-23T03:27:34.437Z,6.50
2023-05-23T03:30:03.542Z,6.60
2023-05-23T03:32:30.766Z,5.70
2023-05-23T03:34:57.879Z,6.27
2023-05-23T03:37:25.007Z,5.63
2023-05-23T03:39:52.127Z,7.00
2023-05-23T03:42:19.487Z,6.13
2023-05-23T03:44:46.607Z,6.57
2023-05-23T03:47:13.732Z,6.40
2023-05-23T03:49:45.206Z,7.33
2023-05-23T03:52:12.723Z,5.93
2023-05-23T03:54:40.217Z,6.57
2023-05-23T03:57:08.440Z,7.90
2023-05-23T03:59:37.032Z,5.60
2023-05-23T04:02:07.840Z,8.60
2023-05-23T04:04:36.267Z,7.80
2023-05-23T04:07:05.643Z,9.27
2023-05-23T04:09:33.098Z,8.60
2023-05-23T04:12:01.108Z,10.90
2023-05-23T04:14:29.361Z,11.07
2023-05-23T04:16:59.064Z,12.10
2023-05-23T04:19:26.860Z,10.73
2023-05-23T04:21:54.138Z,8.30
2023-05-23T04:24:21.487Z,7.57
2023-05-23T04:26:49.785Z,6.30
2023-05-23T04:29:17.068Z,5.40
2023-05-23T04:31:46.019Z,5.83
2023-05-23T04:34:13.576Z,6.53
2023-05-23T04:36:40.730Z,8.37
2023-05-23T04:39:08.528Z,7.00
2023-05-23T04:41:41.273Z,6.90
2023-05-23T04:44:30.340Z,7.00
2023-05-23T04:47:12.300Z,16.40
2023-05-23T04:49:57.580Z,7.60
2023-05-23T04:52:25.565Z,7.10
2023-05-23T04:54:54.207Z,8.20
2023-05-23T04:57:22.186Z,6.40
2023-05-23T04:59:49.469Z,9.10
2023-05-23T05:02:16.602Z,6.40
2023-05-23T05:04:44.614Z,7.30
2023-05-23T05:07:11.901Z,7.50
2023-05-23T05:09:39.657Z,5.93
2023-05-23T05:12:08.017Z,7.53
2023-05-23T05:14:35.218Z,7.10
2023-05-23T05:17:02.928Z,8.87
2023-05-23T05:19:38.085Z,7.83
2023-05-23T05:22:08.083Z,7.80
2023-05-23T05:24:35.601Z,8.80
2023-05-23T05:27:03.529Z,8.63
2023-05-23T05:29:31.368Z,10.53
2023-05-23T05:31:58.736Z,8.43
2023-05-23T05:34:26.990Z,9.77
2023-05-23T05:36:56.478Z,8.80
2023-05-23T05:39:26.489Z,9.57
2023-05-23T05:41:54.408Z,10.07
2023-05-23T05:44:21.597Z,10.27
2023-05-23T05:46:48.979Z,10.50
2023-05-23T05:49:16.288Z,11.80
2023-05-23T05:51:45.734Z,13.53
2023-05-23T05:54:13.190Z,13.77
2023-05-23T05:56:40.601Z,12.40
2023-05-23T05:59:07.905Z,13.03
2023-05-23T06:01:35.916Z,16.20
2023-05-23T06:04:03.369Z,16.13
2023-05-23T06:06:32.342Z,15.87
2023-05-23T06:08:59.968Z,17.90
2023-05-23T06:11:27.091Z,20.87
2023-05-23T06:13:54.290Z,20.50
2023-05-23T06:16:21.558Z,20.00
2023-05-23T06:18:49.011Z,21.60
2023-05-23T06:21:16.487Z,20.33
2023-05-23T06:23:43.854Z,20.13
2023-05-23T06:26:12.282Z,19.73
2023-05-23T06:28:42.178Z,20.33
2023-05-23T06:31:12.660Z,17.73
2023-05-23T06:33:39.853Z,19.20
2023-05-23T06:36:07.296Z,17.80
2023-05-23T06:38:34.403Z,18.83
2023-05-23T06:41:02.411Z,18.00
2023-05-23T06:43:30.500Z,17.87
2023-05-23T06:46:12.964Z,17.30
2023-05-23T06:48:40.122Z,18.90
2023-05-23T06:51:07.452Z,16.70
2023-05-23T06:53:34.570Z,16.80
2023-05-23T06:56:01.817Z,15.87
2023-05-23T06:58:31.747Z,16.37
2023-05-23T07:01:00.925Z,16.47
2023-05-23T07:03:33.361Z,15.23
2023-05-23T07:06:05.150Z,14.43
2023-05-23T07:08:32.526Z,14.90
2023-05-23T07:11:01.472Z,14.30
2023-05-23T07:13:32.921Z,13.27
2023-05-23T07:16:00.654Z,15.20
2023-05-23T07:18:27.858Z,13.87
2023-05-23T07:20:57.296Z,13.23
2023-05-23T07:23:25.930Z,12.00
2023-05-23T07:26:01.700Z,12.80
2023-05-23T07:28:38.061Z,13.00
2023-05-23T07:31:05.359Z,11.70
2023-05-23T07:33:34.579Z,12.60
2023-05-23T07:36:04.453Z,13.33
2023-05-23T07:38:31.602Z,12.50
2023-05-23T07:41:10.515Z,12.57
2023-05-23T07:43:38.640Z,12.70
2023-05-23T07:46:06.250Z,12.93
2023-05-23T07:48:33.791Z,12.63
2023-05-23T07:51:01.302Z,12.07
2023-05-23T07:53:29.217Z,11.50
2023-05-23T07:55:56.884Z,11.10
2023-05-23T07:58:27.372Z,12.00
2023-05-23T08:00:54.443Z,11.23
2023-05-23T08:04:00.222Z,10.77
2023-05-23T08:06:34.569Z,10.73
2023-05-23T08:09:06.819Z,10.63
2023-05-23T08:11:38.029Z,13.03
2023-05-23T08:14:06.504Z,12.80
2023-05-23T08:16:39.547Z,12.53
2023-05-23T08:19:14.855Z,13.13
2023-05-23T08:21:42.653Z,13.90
2023-05-23T08:24:09.867Z,13.20
2023-05-23T08:26:39.656Z,13.67
2023-05-23T08:29:10.629Z,15.07
2023-05-23T08:31:38.045Z,13.70
2023-05-23T08:34:08.091Z,14.03
2023-05-23T08:36:37.471Z,12.57
2023-05-23T08:39:07.018Z,10.93
2023-05-23T08:41:40.100Z,12.37
2023-05-23T08:44:11.227Z,12.17
2023-05-23T08:46:47.667Z,12.63
2023-05-23T08:49:29.142Z,12.70
2023-05-23T08:52:01.994Z,13.10
2023-05-23T08:54:32.677Z,13.60
2023-05-23T08:57:01.001Z,15.17
2023-05-23T08:59:30.458Z,14.73
2023-05-23T09:01:58.556Z,14.97
2023-05-23T09:04:26.436Z,14.50
2023-05-23T09:07:01.456Z,15.60
2023-05-23T09:09:30.192Z,18.03
2023-05-23T09:12:00.448Z,19.20
2023-05-23T09:14:32.073Z,20.67
2023-05-23T09:17:04.809Z,20.80
2023-05-23T09:19:33.373Z,19.47
2023-05-23T09:22:13.582Z,23.57
2023-05-23T09:24:57.434Z,23.07
2023-05-23T09:27:24.990Z,25.30
2023-05-23T09:29:52.348Z,26.53
2023-05-23T09:32:21.451Z,27.97
2023-05-23T09:35:04.121Z,32.40
2023-05-23T09:37:40.960Z,33.40
2023-05-23T09:40:14.747Z,31.40
2023-05-23T09:42:53.291Z,33.00
2023-05-23T09:45:20.463Z,33.53
2023-05-23T09:47:54.157Z,31.40
2023-05-23T09:50:22.942Z,32.13
2023-05-23T09:52:53.892Z,34.03
2023-05-23T09:55:21.342Z,31.37
2023-05-23T09:57:56.658Z,28.50
2023-05-23T10:00:25.415Z,26.00
2023-05-23T10:03:01.779Z,24.30
2023-05-23T10:05:38.707Z,22.17
2023-05-23T10:08:12.127Z,19.57
2023-05-23T10:11:14.494Z,18.97
2023-05-23T10:13:44.865Z,16.73
2023-05-23T10:16:57.013Z,16.17
2023-05-23T10:20:13.546Z,14.00
2023-05-23T10:22:41.324Z,13.03
2023-05-23T10:25:13.616Z,13.23
2023-05-23T10:27:41.435Z,11.77
2023-05-23T10:30:09.914Z,10.50
2023-05-23T10:32:39.746Z,10.53
2023-05-23T10:35:19.354Z,11.63
2023-05-23T10:38:28.562Z,12.30
2023-05-23T10:41:24.607Z,11.23
2023-05-23T10:44:27.204Z,11.00
2023-05-23T10:47:02.288Z,12.00
2023-05-23T10:49:52.198Z,10.00
2023-05-23T10:52:19.355Z,10.20
2023-05-23T10:54:53.381Z,11.27
2023-05-23T10:57:23.498Z,10.87
2023-05-23T10:59:51.954Z,10.50
2023-05-23T11:02:26.966Z,11.00
2023-05-23T11:05:22.814Z,11.47
2023-05-23T11:08:16.268Z,11.90
2023-05-23T11:11:05.100Z,10.40
2023-05-23T11:14:02.950Z,10.43
2023-05-23T11:16:41.024Z,11.80
2023-05-23T11:19:20.478Z,10.40
2023-05-23T11:21:53.449Z,11.77
2023-05-23T11:24:20.914Z,10.70
2023-05-23T11:27:00.743Z,11.27
2023-05-23T11:29:31.726Z,10.40
2023-05-23T11:31:59.032Z,10.03
2023-05-23T11:34:26.677Z,9.70
2023-05-23T11:36:55.789Z,9.93
2023-05-23T11:39:23.750Z,11.20
2023-05-23T11:42:02.246Z,10.80
2023-05-23T11:44:30.012Z,10.70
2023-05-23T11:47:06.278Z,10.63
2023-05-23T11:49:38.124Z,10.63
2023-05-23T11:52:09.402Z,9.50
2023-05-23T11:54:36.678Z,10.37
2023-05-23T11:57:05.152Z,9.40
2023-05-23T11:59:32.255Z,9.60
2023-05-23T12:01:59.359Z,10.07
2023-05-23T12:04:27.280Z,10.00
2023-05-23T12:06:54.670Z,8.37
2023-05-23T12:09:21.878Z,10.03
2023-05-23T12:11:49.856Z,10.33
2023-05-23T12:14:18.195Z,9.37
2023-05-23T12:16:49.298Z,9.73
2023-05-23T12:19:19.680Z,11.00
2023-05-23T12:21:49.165Z,11.83
2023-05-23T12:24:21.245Z,9.77
2023-05-23T12:26:58.555Z,12.00
2023-05-23T12:29:35.600Z,10.10
2023-05-23T12:32:05.462Z,9.20
2023-05-23T12:34:32.695Z,10.70
2023-05-23T12:37:17.963Z,10.23
2023-05-23T12:39:47.138Z,10.57
2023-05-23T12:42:14.350Z,10.47
2023-05-23T12:44:43.709Z,11.30
2023-05-23T12:47:11.053Z,10.13
2023-05-23T12:49:38.946Z,9.63
2023-05-23T12:52:07.469Z,10.20
2023-05-23T12:54:34.621Z,11.07
2023-05-23T12:57:01.799Z,10.37
2023-05-23T12:59:29.074Z,9.93
2023-05-23T13:01:56.251Z,11.60
2023-05-23T13:04:23.499Z,11.70
2023-05-23T13:06:50.747Z,12.30
2023-05-23T13:09:17.994Z,11.00
2023-05-23T13:11:45.303Z,12.73
2023-05-23T13:14:13.723Z,11.10
2023-05-23T13:16:40.918Z,11.70
2023-05-23T13:19:08.183Z,9.80
2023-05-23T13:21:35.586Z,9.03
2023-05-23T13:24:02.712Z,9.43
2023-05-23T13:26:29.759Z,7.97
2023-05-23T13:28:56.822Z,7.40
2023-05-23T13:31:26.089Z,7.90
2023-05-23T13:33:53.335Z,7.67
2023-05-23T13:36:20.522Z,8.37
2023-05-23T13:38:47.734Z,8.87
2023-05-23T13:41:14.927Z,9.77
2023-05-23T13:43:42.211Z,9.07
2023-05-23T13:46:09.362Z,9.80
2023-05-23T13:48:36.578Z,9.03
2023-05-23T13:51:03.899Z,8.40
2023-05-23T13:53:31.691Z,7.47
2023-05-23T13:55:58.855Z,6.43
2023-05-23T13:58:26.190Z,6.43
2023-05-23T14:00:53.463Z,6.37
2023-05-23T14:03:20.925Z,7.33
2023-05-23T14:05:48.325Z,6.57
2023-05-23T14:08:15.710Z,7.30
2023-05-23T14:10:43.211Z,6.70
2023-05-23T14:13:10.995Z,6.20
2023-05-23T14:15:38.595Z,5.63
2023-05-23T14:18:06.009Z,5.40
2023-05-23T14:20:33.363Z,4.87
2023-05-23T14:23:00.535Z,4.50
2023-05-23T14:25:27.765Z,3.20
2023-05-23T14:27:54.923Z,2.00
2023-05-23T14:30:22.032Z,1.77
2023-05-23T14:32:49.925Z,3.00
2023-05-23T14:35:17.334Z,2.40
2023-05-23T14:37:46.722Z,2.80
2023-05-23T14:40:15.228Z,3.20
2023-05-23T14:42:42.646Z,4.10
2023-05-23T14:45:10.316Z,4.13
2023-05-23T14:47:37.864Z,3.97
2023-05-23T14:50:05.598Z,4.37
2023-05-23T14:52:32.706Z,5.23
2023-05-23T14:55:01.165Z,5.37
2023-05-23T14:57:28.738Z,6.00
2023-05-23T14:59:56.617Z,5.30
2023-05-23T15:02:23.951Z,6.07
2023-05-23T15:04:51.104Z,5.33
2023-05-23T15:07:18.457Z,4.80
2023-05-23T15:09:46.192Z,5.40
2023-05-23T15:12:15.297Z,5.60
2023-05-23T15:14:43.608Z,6.43
2023-05-23T15:17:13.044Z,5.70
2023-05-23T15:19:42.959Z,6.60
2023-05-23T15:22:18.726Z,7.63
2023-05-23T15:25:00.628Z,6.30
2023-05-23T15:27:27.722Z,6.00
2023-05-23T15:29:54.850Z,5.50
2023-05-23T15:32:22.354Z,6.33
2023-05-23T15:34:49.579Z,6.20
2023-05-23T15:37:17.656Z,5.17
2023-05-23T15:39:44.771Z,5.13
2023-05-23T15:42:11.984Z,6.10
2023-05-23T15:44:39.145Z,6.67
2023-05-23T15:47:06.292Z,5.17
2023-05-23T15:49:33.353Z,4.77
2023-05-23T15:52:00.804Z,5.53
2023-05-23T15:54:27.909Z,4.50
2023-05-23T15:56:54.993Z,3.97
2023-05-23T15:59:22.060Z,3.53
2023-05-23T16:01:49.188Z,4.90
2023-05-23T16:04:16.410Z,3.40
2023-05-23T16:06:43.602Z,3.20
2023-05-23T16:09:10.999Z,3.97
2023-05-23T16:11:38.077Z,3.63
2023-05-23T16:14:06.075Z,3.93
2023-05-23T16:16:33.211Z,4.80
2023-05-23T16:19:00.481Z,5.63
2023-05-23T16:21:27.532Z,4.20
2023-05-23T16:23:54.714Z,5.40
2023-05-23T16:26:21.890Z,5.80
2023-05-23T16:28:49.062Z,6.30
2023-05-23T16:31:16.910Z,6.47
2023-05-23T16:33:44.978Z,7.67
2023-05-23T16:36:12.106Z,6.80
2023-05-23T16:38:39.354Z,7.00
2023-05-23T16:41:06.434Z,8.17
2023-05-23T16:43:34.777Z,7.27
2023-05-23T16:46:02.151Z,7.33
2023-05-23T16:48:29.282Z,5.53
2023-05-23T16:50:57.856Z,5.43
2023-05-23T16:53:25.085Z,6.10
2023-05-23T16:55:52.439Z,5.47
2023-05-23T16:58:21.054Z,6.30
2023-05-23T17:00:48.819Z,5.47
2023-05-23T17:03:16.428Z,4.37
2023-05-23T17:05:44.290Z,4.70
2023-05-23T17:08:11.902Z,5.00
2023-05-23T17:10:39.117Z,4.30
2023-05-23T17:13:06.387Z,4.13
2023-05-23T17:15:33.526Z,5.30
2023-05-23T17:18:00.701Z,4.73
2023-05-23T17:20:28.167Z,4.80
2023-05-23T17:22:55.940Z,5.60
2023-05-23T17:25:23.182Z,5.20
2023-05-23T17:27:50.661Z,4.70
2023-05-23T17:30:18.692Z,6.07
2023-05-23T17:32:47.109Z,4.87
2023-05-23T17:35:14.565Z,6.03
2023-05-23T17:37:43.648Z,5.13
2023-05-23T17:40:12.463Z,4.80
2023-05-23T17:42:41.027Z,5.23
2023-05-23T17:45:09.917Z,5.73
2023-05-23T17:47:37.236Z,4.13
2023-05-23T17:50:06.350Z,4.70
2023-05-23T17:52:33.592Z,5.10
2023-05-23T17:55:01.257Z,5.20
2023-05-23T17:57:30.232Z,4.23
2023-05-23T17:59:58.332Z,3.27
2023-05-23T18:02:26.904Z,2.80
2023-05-23T18:04:55.031Z,2.93
2023-05-23T18:07:22.438Z,1.97
2023-05-23T18:09:50.371Z,2.50
2023-05-23T18:12:17.823Z,2.17
2023-05-23T18:14:45.690Z,3.03
2023-05-23T18:17:13.082Z,3.67
2023-05-23T18:19:40.598Z,4.10
2023-05-23T18:22:07.801Z,4.70
2023-05-23T18:24:34.847Z,5.57
2023-05-23T18:27:03.079Z,4.90
2023-05-23T18:29:30.365Z,5.60
2023-05-23T18:31:57.705Z,5.50
2023-05-23T18:34:26.482Z,5.93
2023-05-23T18:36:55.154Z,6.97
2023-05-23T18:39:22.271Z,7.23
2023-05-23T18:41:49.633Z,8.03
2023-05-23T18:44:20.095Z,7.33
2023-05-23T18:46:48.665Z,7.70
2023-05-23T18:49:16.117Z,11.20
2023-05-23T18:51:43.838Z,12.43
2023-05-23T18:54:11.589Z,11.63
2023-05-23T18:56:38.719Z,12.33
2023-05-23T18:59:05.903Z,14.50
2023-05-23T19:01:33.404Z,15.47
2023-05-23T19:04:00.625Z,13.70
2023-05-23T19:06:28.432Z,17.83
2023-05-23T19:08:55.620Z,17.83
2023-05-23T19:11:22.944Z,17.37
2023-05-23T19:13:50.540Z,18.53
2023-05-23T19:16:18.076Z,15.90
2023-05-23T19:18:45.811Z,15.63
2023-05-23T19:21:13.179Z,15.87
2023-05-23T19:23:40.705Z,16.33
2023-05-23T19:26:11.135Z,15.20
2023-05-23T19:28:41.329Z,15.23
2023-05-23T19:31:09.555Z,15.53
2023-05-23T19:33:37.029Z,15.37
2023-05-23T19:36:06.142Z,14.70
2023-05-23T19:38:34.192Z,12.40
2023-05-23T19:41:01.695Z,12.73
2023-05-23T19:43:29.335Z,11.80
2023-05-23T19:45:56.847Z,11.87
2023-05-23T19:48:24.099Z,10.23
2023-05-23T19:50:54.249Z,14.93
2023-05-23T19:53:22.976Z,11.00
2023-05-23T19:55:50.828Z,12.03
2023-05-23T19:58:18.721Z,11.87
2023-05-23T20:00:46.441Z,10.80
2023-05-23T20:03:13.932Z,12.27
2023-05-23T20:05:41.296Z,10.63
2023-05-23T20:08:09.173Z,10.63
2023-05-23T20:10:40.180Z,10.97
2023-05-23T20:13:07.776Z,9.87
2023-05-23T20:15:40.023Z,9.97
2023-05-23T20:18:08.535Z,10.30
2023-05-23T20:20:36.200Z,10.10
2023-05-23T20:23:03.867Z,10.50
2023-05-23T20:25:31.677Z,11.50
2023-05-23T20:27:58.940Z,10.20
2023-05-23T20:30:26.428Z,11.37
2023-05-23T20:32:54.596Z,12.43
2023-05-23T20:35:22.848Z,11.67
2023-05-23T20:37:53.729Z,11.97
2023-05-23T20:40:22.673Z,10.67
2023-05-23T20:42:50.162Z,10.90
2023-05-23T20:45:17.567Z,9.13
2023-05-23T20:47:44.933Z,9.33
2023-05-23T20:50:12.803Z,9.70
2023-05-23T20:52:43.073Z,8.80
2023-05-23T20:55:10.895Z,10.30
2023-05-23T20:57:38.570Z,10.23
2023-05-23T21:00:11.013Z,9.93
2023-05-23T21:02:42.893Z,9.60
2023-05-23T21:05:11.909Z,8.80
2023-05-23T21:07:39.569Z,9.20
2023-05-23T21:10:07.290Z,10.17
2023-05-23T21:12:34.835Z,9.13
2023-05-23T21:15:02.044Z,12.10
2023-05-23T21:17:29.158Z,10.77
2023-05-23T21:19:56.334Z,47.27
2023-05-23T21:22:23.559Z,70.30
2023-05-23T21:24:50.955Z,83.80
2023-05-23T21:27:18.088Z,69.80
2023-05-23T21:29:46.982Z,52.60
2023-05-23T21:32:14.260Z,56.80
2023-05-23T21:34:41.654Z,34.57
2023-05-23T21:37:09.246Z,24.03
2023-05-23T21:39:50.016Z,16.53
2023-05-23T21:42:19.141Z,12.53
2023-05-23T21:44:49.521Z,12.13
2023-05-23T21:47:17.199Z,9.73
2023-05-23T21:49:44.439Z,9.07
2023-05-23T21:52:11.583Z,9.97
2023-05-23T21:54:38.736Z,9.93
2023-05-23T21:57:06.135Z,9.43
2023-05-23T21:59:33.400Z,8.57
2023-05-23T22:02:01.088Z,10.70
2023-05-23T22:04:36.742Z,10.23
2023-05-23T22:07:04.051Z,9.47
2023-05-23T22:09:31.269Z,9.33
2023-05-23T22:11:58.390Z,9.10
2023-05-23T22:14:28.356Z,9.30
2023-05-23T22:16:56.212Z,9.20
2023-05-23T22:19:26.222Z,8.13
2023-05-23T22:21:55.635Z,10.50
2023-05-23T22:24:22.782Z,9.10
2023-05-23T22:26:52.161Z,8.13
2023-05-23T22:29:21.793Z,9.10
2023-05-23T22:31:49.018Z,9.03
2023-05-23T22:34:16.269Z,8.23
2023-05-23T22:36:43.345Z,9.87
2023-05-23T22:39:10.443Z,7.63
2023-05-23T22:41:37.680Z,7.50
2023-05-23T22:44:04.845Z,7.80
2023-05-23T22:46:32.106Z,8.43
2023-05-23T22:49:00.409Z,7.80
2023-05-23T22:51:27.626Z,6.97
2023-05-23T22:53:54.724Z,6.60
2023-05-23T22:56:22.113Z,8.27
2023-05-23T22:58:49.202Z,7.10
2023-05-23T23:01:16.435Z,7.07
2023-05-23T23:03:43.636Z,7.33
2023-05-23T23:06:11.075Z,8.00
2023-05-23T23:08:38.399Z,7.07
2023-05-23T23:11:05.680Z,5.87
2023-05-23T23:13:32.752Z,5.07
2023-05-23T23:15:59.879Z,4.50
2023-05-23T23:18:27.060Z,6.60
2023-05-23T23:20:56.790Z,4.97
2023-05-23T23:23:24.062Z,5.93
2023-05-23T23:25:52.364Z,3.73
2023-05-23T23:28:20.802Z,4.83
2023-05-23T23:30:48.157Z,5.13
2023-05-23T23:33:16.050Z,4.83
2023-05-23T23:35:45.603Z,4.10
2023-05-23T23:38:12.829Z,4.10
2023-05-23T23:40:40.141Z,4.40
2023-05-23T23:43:07.388Z,4.70
2023-05-23T23:45:34.464Z,3.37
2023-05-23T23:48:01.588Z,4.33
2023-05-23T23:50:28.743Z,4.53
2023-05-23T23:52:57.982Z,5.00
2023-05-23T23:55:25.081Z,4.23
2023-05-23T23:57:52.251Z,4.63
